createdAt,value
2023-03-29T00:00:28.172Z,508.00
2023-03-29T00:03:28.314Z,510.00
2023-03-29T00:04:28.166Z,509.00
2023-03-29T00:06:28.113Z,505.00
2023-03-29T00:08:28.081Z,503.00
2023-03-29T00:09:28.074Z,510.00
2023-03-29T00:12:28.023Z,509.00
2023-03-29T00:15:27.976Z,507.00
2023-03-29T00:16:27.993Z,511.00
2023-03-29T00:19:27.919Z,506.00
2023-03-29T00:20:27.901Z,514.00
2023-03-29T00:21:27.911Z,518.00
2023-03-29T00:26:27.840Z,506.00
2023-03-29T00:28:27.815Z,517.00
2023-03-29T00:29:27.799Z,516.00
2023-03-29T00:31:27.857Z,509.00
2023-03-29T00:32:27.810Z,512.00
2023-03-29T00:33:27.772Z,515.00
2023-03-29T00:37:27.710Z,516.00
2023-03-29T00:38:27.689Z,509.00
2023-03-29T00:39:27.681Z,514.00
2023-03-29T00:42:27.647Z,516.00
2023-03-29T00:43:27.631Z,518.00
2023-03-29T00:44:27.630Z,521.00
2023-03-29T00:45:27.608Z,507.00
2023-03-29T00:48:27.578Z,518.00
2023-03-29T00:51:27.540Z,511.00
2023-03-29T00:52:27.513Z,505.00
2023-03-29T00:53:27.543Z,516.00
2023-03-29T00:54:27.485Z,506.00
2023-03-29T00:55:27.475Z,506.00
2023-03-29T00:59:27.407Z,523.00
2023-03-29T01:00:27.394Z,522.00
2023-03-29T01:01:27.449Z,523.00
2023-03-29T01:03:27.521Z,528.00
2023-03-29T01:04:27.351Z,520.00
2023-03-29T01:05:27.338Z,514.00
2023-03-29T01:06:27.392Z,521.00
2023-03-29T01:07:27.300Z,521.00
2023-03-29T01:08:27.281Z,516.00
2023-03-29T01:11:27.243Z,521.00
2023-03-29T01:13:27.288Z,518.00
2023-03-29T01:15:27.202Z,517.00
2023-03-29T01:18:27.200Z,515.00
2023-03-29T01:20:27.153Z,513.00
2023-03-29T01:21:27.109Z,518.00
2023-03-29T01:24:27.054Z,506.00
2023-03-29T01:26:27.066Z,511.00
2023-03-29T01:29:26.999Z,507.00
2023-03-29T01:30:26.980Z,505.00
2023-03-29T01:31:26.997Z,506.00
2023-03-29T01:33:26.940Z,514.00
2023-03-29T01:36:26.896Z,517.00
2023-03-29T01:37:26.898Z,524.00
2023-03-29T01:40:26.844Z,519.00
2023-03-29T01:43:26.796Z,508.00
2023-03-29T01:45:26.771Z,512.00
2023-03-29T01:48:26.735Z,518.00
2023-03-29T01:49:26.705Z,518.00
2023-03-29T01:53:26.656Z,510.00
2023-03-29T01:56:26.618Z,509.00
2023-03-29T01:57:26.688Z,510.00
2023-03-29T01:58:26.602Z,511.00
2023-03-29T02:02:26.654Z,508.00
2023-03-29T02:03:26.636Z,509.00
2023-03-29T02:06:26.469Z,512.00
2023-03-29T02:07:26.487Z,514.00
2023-03-29T02:08:26.440Z,504.00
2023-03-29T02:13:26.390Z,515.00
2023-03-29T02:14:26.370Z,515.00
2023-03-29T02:16:26.351Z,511.00
2023-03-29T02:17:26.379Z,510.00
2023-03-29T02:22:26.294Z,511.00
2023-03-29T02:24:26.291Z,513.00
2023-03-29T02:25:26.239Z,518.00
2023-03-29T02:29:26.231Z,503.00
2023-03-29T02:32:26.208Z,510.00
2023-03-29T02:33:26.183Z,509.00
2023-03-29T02:34:26.150Z,505.00
2023-03-29T02:35:26.140Z,504.00
2023-03-29T02:41:26.088Z,511.00
2023-03-29T02:43:26.211Z,516.00
2023-03-29T02:44:26.060Z,515.00
2023-03-29T02:47:26.076Z,511.00
2023-03-29T02:49:26.020Z,509.00
2023-03-29T02:52:25.991Z,512.00
2023-03-29T02:53:25.994Z,516.00
2023-03-29T02:54:26.024Z,510.00
2023-03-29T02:57:25.964Z,511.00
2023-03-29T03:01:25.975Z,509.00
2023-03-29T03:04:25.904Z,505.00
2023-03-29T03:05:25.885Z,509.00
2023-03-29T03:09:25.857Z,512.00
2023-03-29T03:11:25.834Z,511.00
2023-03-29T03:15:25.807Z,511.00
2023-03-29T03:16:25.838Z,515.00
2023-03-29T03:17:25.788Z,517.00
2023-03-29T03:20:25.732Z,517.00
2023-03-29T03:21:25.733Z,517.00
2023-03-29T03:25:25.681Z,517.00
2023-03-29T03:29:25.639Z,508.00
2023-03-29T03:31:25.649Z,506.00
2023-03-29T03:32:25.619Z,513.00
2023-03-29T03:34:25.578Z,507.00
2023-03-29T03:37:25.560Z,504.00
2023-03-29T03:38:25.567Z,517.00
2023-03-29T03:41:25.492Z,506.00
2023-03-29T03:45:25.458Z,516.00
2023-03-29T03:47:25.469Z,505.00
2023-03-29T03:48:25.412Z,501.00
2023-03-29T03:50:25.412Z,500.00
2023-03-29T03:51:25.370Z,516.00
2023-03-29T03:56:25.320Z,508.00
2023-03-29T03:58:25.318Z,525.00
2023-03-29T03:59:25.328Z,523.00
2023-03-29T04:00:25.322Z,499.00
2023-03-29T04:03:25.345Z,527.00
2023-03-29T04:04:25.343Z,540.00
2023-03-29T04:07:25.275Z,500.00
2023-03-29T04:08:25.263Z,521.00
2023-03-29T04:10:25.269Z,527.00
2023-03-29T04:11:25.232Z,506.00
2023-03-29T04:16:25.259Z,528.00
2023-03-29T04:17:25.228Z,511.00
2023-03-29T04:19:25.183Z,510.00
2023-03-29T04:20:25.264Z,534.00
2023-03-29T04:22:25.169Z,515.00
2023-03-29T04:25:25.171Z,513.00
2023-03-29T04:26:25.164Z,513.00
2023-03-29T04:27:25.166Z,536.00
2023-03-29T04:28:25.165Z,521.00
2023-03-29T04:29:25.177Z,501.00
2023-03-29T04:30:25.170Z,508.00
2023-03-29T04:31:25.211Z,520.00
2023-03-29T04:32:25.205Z,532.00
2023-03-29T04:33:25.174Z,543.00
2023-03-29T04:34:25.171Z,514.00
2023-03-29T04:35:25.168Z,502.00
2023-03-29T04:36:25.162Z,502.00
2023-03-29T04:39:25.167Z,538.00
2023-03-29T04:42:25.168Z,515.00
2023-03-29T04:43:25.179Z,539.00
2023-03-29T04:45:25.227Z,548.00
2023-03-29T04:46:25.175Z,525.00
2023-03-29T04:49:26.123Z,526.00
2023-03-29T04:52:25.172Z,509.00
2023-03-29T04:54:25.191Z,527.00
2023-03-29T04:56:25.143Z,546.00
2023-03-29T04:57:25.174Z,522.00
2023-03-29T04:59:25.108Z,513.00
2023-03-29T05:01:25.121Z,545.00
2023-03-29T05:05:25.054Z,537.00
2023-03-29T05:07:25.046Z,557.00
2023-03-29T05:08:25.042Z,546.00
2023-03-29T05:12:25.064Z,556.00
2023-03-29T05:13:25.078Z,561.00
2023-03-29T05:14:25.078Z,540.00
2023-03-29T05:15:25.093Z,525.00
2023-03-29T05:16:25.119Z,542.00
2023-03-29T05:17:25.119Z,549.00
2023-03-29T05:18:25.123Z,564.00
2023-03-29T05:19:25.115Z,545.00
2023-03-29T05:20:25.140Z,529.00
2023-03-29T05:23:25.131Z,551.00
2023-03-29T05:24:25.168Z,551.00
2023-03-29T05:25:25.154Z,543.00
2023-03-29T05:26:25.161Z,527.00
2023-03-29T05:29:25.166Z,562.00
2023-03-29T05:30:25.160Z,536.00
2023-03-29T05:31:25.203Z,543.00
2023-03-29T05:32:25.198Z,569.00
2023-03-29T05:33:25.176Z,596.00
2023-03-29T05:34:25.215Z,633.00
2023-03-29T05:38:25.254Z,799.00
2023-03-29T05:39:25.201Z,850.00
2023-03-29T05:40:25.191Z,900.00
2023-03-29T05:43:25.184Z,1139.00
2023-03-29T05:44:25.192Z,1188.00
2023-03-29T05:47:25.431Z,1391.00
2023-03-29T05:49:25.199Z,1493.00
2023-03-29T05:50:25.212Z,1546.00
2023-03-29T05:51:25.190Z,1570.00
2023-03-29T05:55:25.192Z,1667.00
2023-03-29T05:56:25.171Z,1668.00
2023-03-29T05:59:25.144Z,1776.00
2023-03-29T06:02:25.204Z,1983.00
2023-03-29T06:04:25.138Z,2045.00
2023-03-29T06:06:25.087Z,2058.00
2023-03-29T06:07:25.121Z,2081.00
2023-03-29T06:08:25.197Z,2134.00
2023-03-29T06:09:24.979Z,2226.00
2023-03-29T06:13:24.909Z,2350.00
2023-03-29T06:16:24.910Z,2421.00
2023-03-29T06:18:24.820Z,2448.00
2023-03-29T06:20:24.883Z,2488.00
2023-03-29T06:22:24.734Z,2574.00
2023-03-29T06:25:24.682Z,2651.00
2023-03-29T06:28:24.681Z,2669.00
2023-03-29T06:30:24.545Z,2740.00
2023-03-29T06:32:24.504Z,2746.00
2023-03-29T06:33:24.474Z,2769.00
2023-03-29T06:34:24.973Z,2759.00
2023-03-29T06:38:24.351Z,2857.00
2023-03-29T06:39:24.360Z,2876.00
2023-03-29T06:40:24.300Z,2876.00
2023-03-29T06:41:25.037Z,2954.00
2023-03-29T06:43:24.354Z,3074.00
2023-03-29T06:44:24.404Z,3174.00
2023-03-29T06:47:24.209Z,3122.00
2023-03-29T06:49:24.087Z,3039.00
2023-03-29T06:51:24.030Z,2996.00
2023-03-29T06:52:24.011Z,3055.00
2023-03-29T06:53:23.992Z,3049.00
2023-03-29T06:57:24.060Z,3032.00
2023-03-29T07:00:23.948Z,2842.00
2023-03-29T07:01:24.096Z,2886.00
2023-03-29T07:03:23.841Z,3063.00
2023-03-29T07:05:23.798Z,2960.00
2023-03-29T07:06:23.637Z,2881.00
2023-03-29T07:07:23.637Z,2858.00
2023-03-29T07:10:23.557Z,2990.00
2023-03-29T07:11:23.522Z,2826.00
2023-03-29T07:15:23.445Z,2943.00
2023-03-29T07:16:23.500Z,3005.00
2023-03-29T07:17:23.434Z,2905.00
2023-03-29T07:18:23.355Z,2859.00
2023-03-29T07:20:26.068Z,3024.00
2023-03-29T07:21:23.271Z,3029.00
2023-03-29T07:22:23.340Z,2985.00
2023-03-29T07:26:29.002Z,3074.00
2023-03-29T07:27:24.144Z,3071.00
2023-03-29T07:28:23.084Z,2981.00
2023-03-29T07:31:22.998Z,3098.00
2023-03-29T07:32:23.076Z,3126.00
2023-03-29T07:34:22.936Z,2948.00
2023-03-29T07:36:22.887Z,2923.00
2023-03-29T07:37:22.998Z,2997.00
2023-03-29T07:39:22.786Z,2702.00
2023-03-29T07:41:22.775Z,2260.00
2023-03-29T07:42:22.717Z,2350.00
2023-03-29T07:45:26.822Z,2189.00
2023-03-29T07:46:23.760Z,2100.00
2023-03-29T07:49:22.557Z,2131.00
2023-03-29T07:50:22.533Z,2102.00
2023-03-29T07:52:22.514Z,2055.00
2023-03-29T07:53:22.514Z,2120.00
2023-03-29T07:58:22.415Z,2105.00
2023-03-29T07:59:23.010Z,2163.00
2023-03-29T08:00:22.610Z,2206.00
2023-03-29T08:01:23.076Z,2152.00
2023-03-29T08:03:22.485Z,2027.00
2023-03-29T08:04:22.401Z,2092.00
2023-03-29T08:09:22.189Z,2068.00
2023-03-29T08:11:22.199Z,2199.00
2023-03-29T08:12:24.564Z,2188.00
2023-03-29T08:13:22.134Z,2132.00
2023-03-29T08:14:22.127Z,2052.00
2023-03-29T08:16:22.097Z,2065.00
2023-03-29T08:20:22.052Z,2060.00
2023-03-29T08:22:22.067Z,2131.00
2023-03-29T08:23:21.974Z,2188.00
2023-03-29T08:24:21.894Z,2170.00
2023-03-29T08:25:21.895Z,2134.00
2023-03-29T08:26:21.900Z,2125.00
2023-03-29T08:30:21.814Z,2265.00
2023-03-29T08:31:21.814Z,2375.00
2023-03-29T08:33:21.757Z,2360.00
2023-03-29T08:35:22.708Z,2366.00
2023-03-29T08:36:21.720Z,2326.00
2023-03-29T08:41:21.553Z,1845.00
2023-03-29T08:42:21.504Z,1862.00
2023-03-29T08:43:21.530Z,1838.00
2023-03-29T08:44:21.476Z,1715.00
2023-03-29T08:46:21.501Z,1391.00
2023-03-29T08:51:21.357Z,1266.00
2023-03-29T08:52:21.348Z,1154.00
2023-03-29T08:53:21.354Z,1123.00
2023-03-29T08:54:21.309Z,1224.00
2023-03-29T08:55:21.313Z,1226.00
2023-03-29T08:59:21.272Z,1140.00
2023-03-29T09:00:21.227Z,1244.00
2023-03-29T09:01:21.244Z,1191.00
2023-03-29T09:02:21.172Z,1099.00
2023-03-29T09:04:21.122Z,1072.00
2023-03-29T09:05:21.136Z,1142.00
2023-03-29T09:09:21.142Z,1058.00
2023-03-29T09:10:21.114Z,1129.00
2023-03-29T09:11:21.524Z,1158.00
2023-03-29T09:12:21.043Z,1160.00
2023-03-29T09:13:21.080Z,1168.00
2023-03-29T09:14:21.030Z,1190.00
2023-03-29T09:15:20.966Z,1231.00
2023-03-29T09:17:20.920Z,1300.00
2023-03-29T09:21:20.849Z,1328.00
2023-03-29T09:22:20.922Z,1330.00
2023-03-29T09:23:20.810Z,1344.00
2023-03-29T09:24:20.789Z,1374.00
2023-03-29T09:25:20.791Z,1379.00
2023-03-29T09:26:20.764Z,1379.00
2023-03-29T09:28:20.756Z,1393.00
2023-03-29T09:29:20.799Z,1406.00
2023-03-29T09:32:20.695Z,1353.00
2023-03-29T09:34:20.635Z,1401.00
2023-03-29T09:35:20.663Z,1376.00
2023-03-29T09:36:20.638Z,1334.00
2023-03-29T09:37:20.566Z,1328.00
2023-03-29T09:39:20.615Z,1270.00
2023-03-29T09:41:20.548Z,1266.00
2023-03-29T09:45:20.479Z,1386.00
2023-03-29T09:46:20.544Z,1506.00
2023-03-29T09:47:20.446Z,1636.00
2023-03-29T09:49:20.387Z,1766.00
2023-03-29T09:50:31.039Z,1854.00
2023-03-29T09:51:21.548Z,1854.00
2023-03-29T09:55:20.455Z,1864.00
2023-03-29T09:56:20.421Z,1898.00
2023-03-29T09:57:20.486Z,1939.00
2023-03-29T09:59:20.341Z,2030.00
2023-03-29T10:00:20.393Z,2113.00
2023-03-29T10:02:20.259Z,2072.00
2023-03-29T10:05:20.164Z,1944.00
2023-03-29T10:06:20.150Z,1930.00
2023-03-29T10:07:20.159Z,1837.00
2023-03-29T10:08:20.241Z,1720.00
2023-03-29T10:12:20.037Z,1554.00
2023-03-29T10:15:29.206Z,1367.00
2023-03-29T10:16:20.945Z,1370.00
2023-03-29T10:17:19.884Z,1370.00
2023-03-29T10:19:19.874Z,1379.00
2023-03-29T10:20:19.906Z,1307.00
2023-03-29T10:21:19.928Z,1319.00
2023-03-29T10:25:19.757Z,1154.00
2023-03-29T10:27:19.748Z,1182.00
2023-03-29T10:28:19.802Z,1256.00
2023-03-29T10:30:19.633Z,1305.00
2023-03-29T10:31:19.692Z,1249.00
2023-03-29T10:33:19.631Z,1334.00
2023-03-29T10:37:19.589Z,1185.00
2023-03-29T10:40:19.472Z,1307.00
2023-03-29T10:41:19.271Z,1357.00
2023-03-29T10:42:19.488Z,1314.00
2023-03-29T10:43:19.211Z,1313.00
2023-03-29T10:45:19.145Z,1270.00
2023-03-29T10:46:19.126Z,1302.00
2023-03-29T10:51:18.969Z,1282.00
2023-03-29T10:53:18.913Z,1257.00
2023-03-29T10:54:18.874Z,1242.00
2023-03-29T10:55:18.844Z,1221.00
2023-03-29T10:56:18.807Z,1209.00
2023-03-29T11:02:18.838Z,1240.00
2023-03-29T11:03:20.996Z,1298.00
2023-03-29T11:04:18.593Z,1299.00
2023-03-29T11:07:18.499Z,1302.00
2023-03-29T11:08:18.538Z,1286.00
2023-03-29T11:11:18.372Z,1327.00
2023-03-29T11:13:18.325Z,1336.00
2023-03-29T11:14:18.281Z,1286.00
2023-03-29T11:15:18.262Z,1279.00
2023-03-29T11:17:18.205Z,1249.00
2023-03-29T11:19:18.131Z,1208.00
2023-03-29T11:22:18.000Z,1211.00
2023-03-29T11:23:17.962Z,1173.00
2023-03-29T11:26:17.954Z,1148.00
2023-03-29T11:27:17.846Z,1119.00
2023-03-29T11:29:17.842Z,1144.00
2023-03-29T11:31:17.829Z,1166.00
2023-03-29T11:34:17.644Z,1155.00
2023-03-29T11:36:18.610Z,1107.00
2023-03-29T11:37:18.576Z,1109.00
2023-03-29T11:40:18.485Z,1121.00
2023-03-29T11:42:17.390Z,1114.00
2023-03-29T11:44:17.393Z,1124.00
2023-03-29T11:48:17.233Z,1093.00
2023-03-29T11:50:17.171Z,1123.00
2023-03-29T11:51:17.621Z,1123.00
2023-03-29T11:52:19.031Z,1124.00
2023-03-29T11:57:17.032Z,1092.00
2023-03-29T11:58:17.015Z,1122.00
2023-03-29T11:59:16.925Z,1123.00
2023-03-29T12:00:17.971Z,1123.00
2023-03-29T12:01:17.897Z,1098.00
2023-03-29T12:03:16.865Z,1098.00
2023-03-29T12:04:16.848Z,1106.00
2023-03-29T12:09:16.912Z,1114.00
2023-03-29T12:10:16.617Z,1123.00
2023-03-29T12:11:18.120Z,1088.00
2023-03-29T12:12:16.559Z,1075.00
2023-03-29T12:13:16.521Z,1105.00
2023-03-29T12:14:16.488Z,1067.00
2023-03-29T12:16:16.490Z,1107.00
2023-03-29T12:17:16.505Z,1082.00
2023-03-29T12:21:16.378Z,1024.00
2023-03-29T12:22:16.234Z,1022.00
2023-03-29T12:23:16.202Z,1001.00
2023-03-29T12:24:16.236Z,980.00
2023-03-29T12:25:17.891Z,965.00
2023-03-29T12:28:16.087Z,1015.00
2023-03-29T12:29:16.118Z,1033.00
2023-03-29T12:31:15.967Z,1001.00
2023-03-29T12:32:16.060Z,977.00
2023-03-29T12:34:15.918Z,971.00
2023-03-29T12:35:15.820Z,990.00
2023-03-29T12:36:15.810Z,959.00
2023-03-29T12:40:15.691Z,999.00
2023-03-29T12:41:15.698Z,953.00
2023-03-29T12:42:15.670Z,975.00
2023-03-29T12:44:15.564Z,985.00
2023-03-29T12:45:15.521Z,1031.00
2023-03-29T12:47:58.995Z,500.00
2023-03-29T12:48:58.807Z,500.00
2023-03-29T12:49:58.754Z,500.00
2023-03-29T12:52:18.866Z,500.00
2023-03-29T12:53:18.821Z,500.00
2023-03-29T12:54:18.821Z,500.00
2023-03-29T12:55:18.816Z,500.00
2023-03-29T12:56:18.824Z,500.00
2023-03-29T12:57:18.787Z,502.00
2023-03-29T12:58:18.749Z,495.00
2023-03-29T12:59:18.788Z,508.00
2023-03-29T13:00:18.697Z,511.00
2023-03-29T13:01:18.751Z,502.00
2023-03-29T13:02:18.698Z,502.00
2023-03-29T13:03:18.689Z,501.00
2023-03-29T13:04:18.693Z,509.00
2023-03-29T13:05:18.610Z,503.00
2023-03-29T13:06:18.563Z,509.00
2023-03-29T13:07:18.587Z,524.00
2023-03-29T13:08:18.537Z,524.00
2023-03-29T13:09:18.512Z,506.00
2023-03-29T13:10:18.501Z,522.00
2023-03-29T13:11:18.517Z,505.00
2023-03-29T13:12:18.440Z,502.00
2023-03-29T13:13:18.415Z,500.00
2023-03-29T13:14:18.403Z,507.00
2023-03-29T13:15:18.410Z,509.00
2023-03-29T13:16:18.367Z,507.00
2023-03-29T13:17:19.212Z,515.00
2023-03-29T13:18:18.485Z,523.00
2023-03-29T13:19:18.468Z,512.00
2023-03-29T13:20:18.522Z,513.00
2023-03-29T13:21:18.556Z,503.00
2023-03-29T13:22:18.649Z,503.00
2023-03-29T13:23:18.590Z,503.00
2023-03-29T13:24:18.805Z,506.00
2023-03-29T13:25:18.558Z,508.00
2023-03-29T13:26:18.556Z,513.00
2023-03-29T13:27:18.572Z,506.00
2023-03-29T13:28:18.509Z,510.00
2023-03-29T13:29:18.463Z,510.00
2023-03-29T13:30:18.429Z,510.00
2023-03-29T13:31:18.446Z,496.00
2023-03-29T13:32:18.451Z,500.00
2023-03-29T13:33:18.362Z,483.00
2023-03-29T13:34:18.614Z,504.00
2023-03-29T13:35:18.325Z,517.00
2023-03-29T13:36:18.331Z,520.00
2023-03-29T13:37:18.289Z,510.00
2023-03-29T13:38:18.251Z,513.00
2023-03-29T13:39:18.246Z,513.00
2023-03-29T13:40:18.377Z,513.00
2023-03-29T13:41:18.208Z,513.00
2023-03-29T13:42:18.247Z,518.00
2023-03-29T13:43:18.182Z,518.00
2023-03-29T13:44:18.152Z,520.00
2023-03-29T13:45:18.148Z,517.00
2023-03-29T13:46:18.140Z,527.00
2023-03-29T13:47:18.086Z,526.00
2023-03-29T13:48:18.116Z,532.00
2023-03-29T13:49:18.114Z,540.00
2023-03-29T13:50:18.053Z,532.00
2023-03-29T13:51:18.094Z,527.00
2023-03-29T13:52:18.096Z,535.00
2023-03-29T13:53:18.067Z,544.00
2023-03-29T13:54:18.097Z,544.00
2023-03-29T13:55:18.132Z,551.00
2023-03-29T13:56:18.198Z,545.00
2023-03-29T13:57:18.251Z,543.00
2023-03-29T13:58:18.419Z,542.00
2023-03-29T13:59:18.214Z,546.00
2023-03-29T14:00:18.251Z,554.00
2023-03-29T14:01:18.272Z,565.00
2023-03-29T14:02:18.345Z,563.00
2023-03-29T14:03:18.442Z,569.00
2023-03-29T14:04:18.300Z,569.00
2023-03-29T14:05:18.306Z,571.00
2023-03-29T14:06:18.320Z,580.00
2023-03-29T14:07:18.370Z,576.00
2023-03-29T14:08:18.377Z,577.00
2023-03-29T14:09:18.420Z,570.00
2023-03-29T14:10:18.430Z,577.00
2023-03-29T14:11:18.431Z,571.00
2023-03-29T14:12:18.452Z,571.00
2023-03-29T14:13:18.471Z,571.00
2023-03-29T14:14:18.404Z,572.00
2023-03-29T14:15:18.433Z,570.00
2023-03-29T14:16:18.409Z,562.00
2023-03-29T14:17:18.342Z,561.00
2023-03-29T14:18:18.367Z,543.00
2023-03-29T14:19:18.364Z,535.00
2023-03-29T14:20:18.397Z,540.00
2023-03-29T14:21:18.286Z,547.00
2023-03-29T14:22:18.248Z,539.00
2023-03-29T14:23:18.226Z,529.00
2023-03-29T14:24:18.204Z,529.00
2023-03-29T14:25:18.212Z,530.00
2023-03-29T14:26:18.164Z,531.00
2023-03-29T14:27:18.142Z,538.00
2023-03-29T14:28:18.213Z,550.00
2023-03-29T14:29:18.096Z,551.00
2023-03-29T14:30:18.093Z,544.00
2023-03-29T14:31:18.138Z,538.00
2023-03-29T14:32:18.038Z,542.00
2023-03-29T14:33:18.024Z,548.00
2023-03-29T14:34:18.003Z,540.00
2023-03-29T14:35:17.985Z,542.00
2023-03-29T14:36:18.082Z,539.00
2023-03-29T14:37:17.953Z,548.00
2023-03-29T14:38:17.972Z,535.00
2023-03-29T14:39:17.908Z,532.00
2023-03-29T14:40:17.899Z,533.00
2023-03-29T14:41:17.878Z,527.00
2023-03-29T14:42:17.863Z,538.00
2023-03-29T14:43:17.834Z,541.00
2023-03-29T14:44:17.836Z,531.00
2023-03-29T14:45:17.833Z,533.00
2023-03-29T14:46:17.806Z,521.00
2023-03-29T14:47:17.772Z,517.00
2023-03-29T14:48:17.763Z,528.00
2023-03-29T14:49:17.758Z,527.00
2023-03-29T14:50:17.817Z,527.00
2023-03-29T14:51:17.724Z,525.00
2023-03-29T14:52:17.710Z,528.00
2023-03-29T14:53:17.706Z,522.00
2023-03-29T14:54:17.715Z,528.00
2023-03-29T14:55:17.675Z,545.00
2023-03-29T14:56:17.664Z,521.00
2023-03-29T14:57:17.651Z,517.00
2023-03-29T14:58:17.640Z,521.00
2023-03-29T14:59:17.602Z,522.00
2023-03-29T15:00:17.594Z,531.00
2023-03-29T15:01:17.572Z,528.00
2023-03-29T15:02:17.573Z,526.00
2023-03-29T15:03:17.605Z,517.00
2023-03-29T15:04:17.504Z,521.00
2023-03-29T15:05:17.513Z,521.00
2023-03-29T15:06:17.486Z,530.00
2023-03-29T15:07:17.485Z,526.00
2023-03-29T15:08:17.459Z,514.00
2023-03-29T15:09:17.433Z,526.00
2023-03-29T15:10:17.413Z,531.00
2023-03-29T15:11:17.398Z,527.00
2023-03-29T15:12:17.391Z,516.00
2023-03-29T15:13:17.389Z,516.00
2023-03-29T15:14:17.351Z,518.00
2023-03-29T15:15:17.342Z,512.00
2023-03-29T15:16:17.349Z,515.00
2023-03-29T15:17:17.303Z,516.00
2023-03-29T15:18:17.340Z,519.00
2023-03-29T15:19:17.275Z,508.00
2023-03-29T15:20:17.301Z,503.00
2023-03-29T15:21:18.217Z,523.00
2023-03-29T15:22:17.250Z,516.00
2023-03-29T15:23:17.235Z,521.00
2023-03-29T15:24:17.207Z,519.00
2023-03-29T15:25:17.186Z,523.00
2023-03-29T15:26:17.186Z,500.00
2023-03-29T15:27:17.156Z,528.00
2023-03-29T15:28:17.142Z,511.00
2023-03-29T15:29:17.264Z,523.00
2023-03-29T15:30:17.101Z,512.00
2023-03-29T15:31:17.129Z,504.00
2023-03-29T15:32:17.077Z,505.00
2023-03-29T15:33:17.136Z,510.00
2023-03-29T15:34:17.033Z,500.00
2023-03-29T15:35:17.014Z,500.00
2023-03-29T15:36:17.088Z,500.00
2023-03-29T15:37:17.088Z,502.00
2023-03-29T15:38:17.081Z,510.00
2023-03-29T15:39:16.966Z,528.00
2023-03-29T15:40:17.026Z,514.00
2023-03-29T15:41:16.930Z,514.00
2023-03-29T15:42:16.912Z,520.00
2023-03-29T15:43:16.897Z,518.00
2023-03-29T15:44:16.877Z,511.00
2023-03-29T15:45:16.856Z,522.00
2023-03-29T15:46:16.906Z,521.00
2023-03-29T15:47:16.824Z,527.00
2023-03-29T15:48:16.842Z,520.00
2023-03-29T15:49:16.815Z,540.00
2023-03-29T15:50:16.766Z,533.00
2023-03-29T15:51:16.754Z,532.00
2023-03-29T15:52:16.768Z,535.00
2023-03-29T15:53:16.737Z,534.00
2023-03-29T15:54:16.708Z,528.00
2023-03-29T15:55:16.698Z,528.00
2023-03-29T15:56:16.677Z,538.00
2023-03-29T15:57:16.740Z,530.00
2023-03-29T15:58:16.816Z,535.00
2023-03-29T15:59:16.627Z,538.00
2023-03-29T16:00:16.622Z,542.00
2023-03-29T16:01:16.644Z,542.00
2023-03-29T16:02:16.724Z,544.00
2023-03-29T16:03:16.626Z,536.00
2023-03-29T16:04:16.560Z,539.00
2023-03-29T16:05:16.531Z,535.00
2023-03-29T16:06:16.520Z,530.00
2023-03-29T16:07:16.496Z,534.00
2023-03-29T16:08:16.492Z,529.00
2023-03-29T16:09:16.466Z,533.00
2023-03-29T16:10:16.454Z,531.00
2023-03-29T16:11:16.440Z,537.00
2023-03-29T16:12:16.460Z,534.00
2023-03-29T16:13:16.410Z,535.00
2023-03-29T16:14:16.382Z,536.00
2023-03-29T16:15:16.367Z,538.00
2023-03-29T16:16:16.377Z,536.00
2023-03-29T16:17:16.330Z,538.00
2023-03-29T16:18:16.311Z,531.00
2023-03-29T16:19:16.301Z,528.00
2023-03-29T16:20:16.253Z,528.00
2023-03-29T16:21:16.240Z,525.00
2023-03-29T16:22:16.241Z,533.00
2023-03-29T16:23:16.245Z,524.00
2023-03-29T16:24:16.269Z,524.00
2023-03-29T16:25:16.246Z,528.00
2023-03-29T16:26:16.248Z,532.00
2023-03-29T16:27:16.233Z,529.00
2023-03-29T16:28:16.219Z,531.00
2023-03-29T16:29:16.229Z,526.00
2023-03-29T16:30:16.219Z,526.00
2023-03-29T16:31:16.246Z,534.00
2023-03-29T16:32:16.242Z,527.00
2023-03-29T16:33:16.237Z,527.00
2023-03-29T16:34:16.199Z,528.00
2023-03-29T16:35:16.177Z,531.00
2023-03-29T16:36:16.166Z,533.00
2023-03-29T16:37:16.148Z,542.00
2023-03-29T16:38:16.118Z,530.00
2023-03-29T16:39:16.106Z,531.00
2023-03-29T16:40:16.095Z,531.00
2023-03-29T16:41:16.285Z,530.00
2023-03-29T16:42:16.059Z,527.00
2023-03-29T16:43:16.083Z,524.00
2023-03-29T16:44:16.096Z,535.00
2023-03-29T16:45:16.017Z,535.00
2023-03-29T16:46:16.069Z,528.00
2023-03-29T16:47:15.995Z,526.00
2023-03-29T16:48:15.996Z,532.00
2023-03-29T16:49:15.977Z,526.00
2023-03-29T16:50:16.022Z,526.00
2023-03-29T16:51:15.946Z,529.00
2023-03-29T16:52:15.944Z,532.00
2023-03-29T16:53:15.925Z,534.00
2023-03-29T16:54:16.035Z,537.00
2023-03-29T16:55:15.895Z,523.00
2023-03-29T16:56:15.883Z,531.00
2023-03-29T16:57:15.916Z,533.00
2023-03-29T16:58:15.869Z,530.00
2023-03-29T16:59:15.855Z,526.00
2023-03-29T17:00:15.852Z,523.00
2023-03-29T17:01:15.854Z,525.00
2023-03-29T17:02:15.809Z,525.00
2023-03-29T17:03:15.831Z,525.00
2023-03-29T17:04:15.795Z,525.00
2023-03-29T17:05:15.759Z,522.00
2023-03-29T17:06:15.731Z,524.00
2023-03-29T17:07:15.740Z,527.00
2023-03-29T17:08:15.699Z,525.00
2023-03-29T17:09:15.700Z,521.00
2023-03-29T17:10:15.721Z,523.00
2023-03-29T17:11:15.745Z,525.00
2023-03-29T17:12:15.704Z,524.00
2023-03-29T17:13:15.722Z,522.00
2023-03-29T17:14:15.731Z,526.00
2023-03-29T17:15:15.703Z,527.00
2023-03-29T17:16:15.728Z,526.00
2023-03-29T17:17:15.678Z,524.00
2023-03-29T17:18:15.677Z,524.00
2023-03-29T17:19:15.673Z,519.00
2023-03-29T17:20:15.618Z,521.00
2023-03-29T17:21:15.612Z,510.00
2023-03-29T17:22:15.604Z,515.00
2023-03-29T17:23:15.575Z,521.00
2023-03-29T17:24:15.566Z,521.00
2023-03-29T17:25:15.536Z,520.00
2023-03-29T17:26:15.522Z,522.00
2023-03-29T17:27:15.512Z,518.00
2023-03-29T17:28:15.487Z,521.00
2023-03-29T17:29:15.470Z,520.00
2023-03-29T17:30:15.443Z,521.00
2023-03-29T17:31:15.459Z,520.00
2023-03-29T17:32:15.421Z,521.00
2023-03-29T17:33:15.398Z,517.00
2023-03-29T17:34:15.383Z,514.00
2023-03-29T17:35:15.345Z,516.00
2023-03-29T17:36:15.370Z,515.00
2023-03-29T17:37:15.314Z,515.00
2023-03-29T17:38:15.290Z,515.00
2023-03-29T17:39:15.322Z,516.00
2023-03-29T17:40:15.258Z,511.00
2023-03-29T17:41:15.220Z,511.00
2023-03-29T17:42:15.197Z,509.00
2023-03-29T17:43:15.191Z,511.00
2023-03-29T17:44:15.175Z,506.00
2023-03-29T17:45:15.169Z,505.00
2023-03-29T17:46:15.143Z,509.00
2023-03-29T17:47:15.112Z,503.00
2023-03-29T17:48:15.169Z,506.00
2023-03-29T17:49:15.076Z,505.00
2023-03-29T17:50:15.069Z,510.00
2023-03-29T17:51:15.046Z,501.00
2023-03-29T17:52:15.033Z,510.00
2023-03-29T17:53:15.007Z,506.00
2023-03-29T17:54:15.009Z,506.00
2023-03-29T17:55:14.976Z,506.00
2023-03-29T17:56:14.978Z,505.00
2023-03-29T17:57:15.056Z,502.00
2023-03-29T17:58:15.009Z,503.00
2023-03-29T17:59:14.995Z,504.00
2023-03-29T18:00:14.979Z,505.00
2023-03-29T18:01:15.075Z,504.00
2023-03-29T18:02:14.997Z,504.00
2023-03-29T18:03:14.966Z,504.00
2023-03-29T18:04:14.938Z,505.00
2023-03-29T18:05:14.890Z,505.00
2023-03-29T18:06:14.874Z,504.00
2023-03-29T18:07:14.859Z,502.00
2023-03-29T18:08:14.855Z,504.00
2023-03-29T18:09:14.830Z,506.00
2023-03-29T18:10:14.823Z,508.00
2023-03-29T18:11:14.795Z,508.00
2023-03-29T18:12:14.786Z,501.00
2023-03-29T18:13:14.761Z,504.00
2023-03-29T18:14:14.750Z,505.00
2023-03-29T18:15:14.751Z,500.00
2023-03-29T18:16:14.754Z,507.00
2023-03-29T18:17:14.712Z,504.00
2023-03-29T18:18:14.697Z,504.00
2023-03-29T18:19:14.718Z,502.00
2023-03-29T18:20:14.677Z,503.00
2023-03-29T18:21:14.659Z,505.00
2023-03-29T18:22:14.642Z,506.00